LPLA METAR and TAF weather

Enter ICAO airport designator
Station Type Date Time Source
LPLA METAR 2020/04/06 14:00 UTC NOAA

LPLA 061400Z /////KT 9999 FEW014 SCT022 20/15 Q1012


Station Type Date Time Source
LPLA Decoded METAR 2020/04/06 14:00 UTC NOAA

Lajes Acores , Portugal (LPLA) 38-46N 027-06W 54M
Apr 06, 2020 - 10:00 AM EDT / 2020.04.06 1400 UTC
Visibility: greater than 7 mile(s):0
Sky conditions: partly cloudy
Temperature: 68 F (20 C)
Dew Point: 59 F (15 C)
Relative Humidity: 72%
Pressure (altimeter): 29.88 in. Hg (1012 hPa)
ob: LPLA 061400Z /////KT 9999 FEW014 SCT022 20/15 Q1012
cycle: 14

Station Type Date Time Source
LPLA TAF 2020/04/06 12:18 UTC NOAA

TAF LPLA 061105Z 0612/0712 17015KT 9999 SCT015 BKN025
BECMG 0622/0624 SCT008 BKN018
TEMPO 0623/0712 18018G28KT 4000 -DZRA BR SCT005 BKN007 PROB40
TEMPO 0705/0712 2000 TSRA SCT002 BKN004 FEW020CB

Example: see airport list